Time;durP1;ratioP1;P1;durP2;ratioP2;P2;SDS_P1;SDS_P2;PMS_P1;PMS_P2;Temp;Humidity;BMP_temperature;BMP_pressure;BME280_temperature;BME280_humidity;BME280_pressure;Samples;Min_cycle;Max_cycle;Signal;HPM_P1;HPM_P2
2021/10/27 00:01:44;;;;;;;;;;;14.80;99.90;;;;;;5014420;28;19963;-75
2021/10/27 00:04:10;;;;;;;;;;;14.90;99.90;;;;;;5015455;28;19991;-75
2021/10/27 00:06:36;;;;;;;;;;;14.90;99.90;;;;;;5015693;28;20373;-76
2021/10/27 00:09:02;;;;;;;;;;;14.90;99.90;;;;;;4997171;28;20322;-77
2021/10/27 00:11:28;;;;;;;;;;;14.80;99.90;;;;;;4996372;28;19917;-74
2021/10/27 00:13:53;;;;;;;;;;;14.80;99.90;;;;;;5015464;28;20480;-75
2021/10/27 00:16:19;;;;;;;;;;;14.80;99.90;;;;;;4997936;28;19971;-74
2021/10/27 00:18:44;;;;;;;;;;;14.80;99.90;;;;;;5015160;28;19957;-77
2021/10/27 00:21:10;;;;;;;;;;;14.80;99.90;;;;;;5001235;28;19913;-76
2021/10/27 00:23:35;;;;;;;;;;;14.90;99.90;;;;;;5004633;28;19920;-75
2021/10/27 00:26:01;;;;;;;;;;;14.90;99.90;;;;;;5015067;28;19914;-75
2021/10/27 00:28:26;;;;;;;;;;;14.80;99.90;;;;;;5014923;28;20366;-73
2021/10/27 00:30:52;;;;;;;;;;;14.80;99.90;;;;;;4997219;28;19967;-76
2021/10/27 00:33:18;;;;;;;;;;;14.90;99.90;;;;;;4998561;28;19917;-76
2021/10/27 00:35:43;;;;;;;;;;;14.90;99.90;;;;;;5014971;28;19925;-76
2021/10/27 00:38:09;;;;;;;;;;;14.90;99.90;;;;;;4996742;28;20381;-77
2021/10/27 00:40:34;;;;;;;;;;;14.90;99.90;;;;;;4989050;28;20275;-77
2021/10/27 00:43:00;;;;;;;;;;;15.00;99.90;;;;;;4997024;28;19929;-76
2021/10/27 00:45:26;;;;;;;;;;;14.90;99.90;;;;;;5014737;28;20381;-77
2021/10/27 00:47:51;;;;;;;;;;;14.90;99.90;;;;;;5014319;28;20012;-77
2021/10/27 00:50:17;;;;;;;;;;;14.90;99.90;;;;;;5013911;28;19914;-76
2021/10/27 00:52:43;;;;;;;;;;;14.90;99.90;;;;;;5014251;28;19909;-76
2021/10/27 00:55:10;;;;;;;;;;;14.90;99.90;;;;;;5014628;28;20270;-76
2021/10/27 00:57:37;;;;;;;;;;;14.90;99.90;;;;;;4996369;28;19917;-75
2021/10/27 01:00:06;;;;;;;;;;;14.90;99.90;;;;;;5014631;28;19909;-76
2021/10/27 01:02:31;;;;;;;;;;;14.90;99.90;;;;;;4996863;28;20281;-76
2021/10/27 01:04:57;;;;;;;;;;;15.00;99.90;;;;;;4996899;28;20005;-75
2021/10/27 01:07:23;;;;;;;;;;;14.90;99.90;;;;;;4996535;28;19914;-75
2021/10/27 01:09:49;;;;;;;;;;;14.90;99.90;;;;;;5013959;28;19913;-75
2021/10/27 01:12:14;;;;;;;;;;;14.90;99.90;;;;;;5013929;28;19944;-75
2021/10/27 01:14:44;;;;;;;;;;;14.90;99.90;;;;;;4996388;28;19910;-75
2021/10/27 01:17:10;;;;;;;;;;;14.90;99.90;;;;;;4996147;28;20008;-76
2021/10/27 01:19:44;;;;;;;;;;;14.80;99.90;;;;;;4996029;28;19913;-75
2021/10/27 01:22:11;;;;;;;;;;;14.70;99.90;;;;;;4996283;28;19910;-76
2021/10/27 01:24:36;;;;;;;;;;;14.70;99.90;;;;;;5013847;28;19984;-75
2021/10/27 01:27:02;;;;;;;;;;;14.70;99.90;;;;;;5013913;28;19999;-74
2021/10/27 01:29:27;;;;;;;;;;;14.60;99.90;;;;;;4995939;28;19921;-74
2021/10/27 01:31:53;;;;;;;;;;;14.70;99.90;;;;;;5013697;28;19913;-74
2021/10/27 01:34:18;;;;;;;;;;;14.70;99.90;;;;;;5013342;28;19913;-75
2021/10/27 01:36:44;;;;;;;;;;;14.70;99.90;;;;;;5013776;28;19967;-74
2021/10/27 01:39:10;;;;;;;;;;;14.70;99.90;;;;;;4995919;28;19956;-75
2021/10/27 01:41:35;;;;;;;;;;;14.70;99.90;;;;;;4995361;28;19948;-76
2021/10/27 01:44:01;;;;;;;;;;;14.70;99.90;;;;;;5013412;28;19913;-77
2021/10/27 01:46:26;;;;;;;;;;;14.70;99.90;;;;;;5013529;28;20436;-75
2021/10/27 01:48:52;;;;;;;;;;;14.70;99.90;;;;;;5013722;28;19909;-76
2021/10/27 01:51:17;;;;;;;;;;;14.70;99.90;;;;;;5013324;28;19913;-75
2021/10/27 01:53:43;;;;;;;;;;;14.70;99.90;;;;;;4995688;28;20004;-76
2021/10/27 01:56:08;;;;;;;;;;;14.70;99.90;;;;;;4995703;28;19914;-75
2021/10/27 01:58:34;;;;;;;;;;;14.70;99.90;;;;;;4995577;28;19914;-75
2021/10/27 02:00:59;;;;;;;;;;;14.70;99.90;;;;;;4995754;28;19913;-76
2021/10/27 02:03:25;;;;;;;;;;;14.70;99.90;;;;;;4995522;28;19910;-75
2021/10/27 02:05:50;;;;;;;;;;;14.70;99.90;;;;;;4994781;28;19913;-75
2021/10/27 02:08:16;;;;;;;;;;;14.60;99.90;;;;;;5013521;28;19917;-77
2021/10/27 02:10:41;;;;;;;;;;;14.60;99.90;;;;;;5013424;28;19909;-75
2021/10/27 02:13:07;;;;;;;;;;;14.60;99.90;;;;;;4995580;28;19913;-74
2021/10/27 02:15:32;;;;;;;;;;;14.60;99.90;;;;;;4995849;28;19914;-74
2021/10/27 02:17:58;;;;;;;;;;;14.60;99.90;;;;;;5013264;28;20000;-75
2021/10/27 02:20:23;;;;;;;;;;;14.60;99.90;;;;;;5013213;28;19913;-75
2021/10/27 02:22:49;;;;;;;;;;;14.60;99.90;;;;;;4995379;28;19913;-75
2021/10/27 02:25:14;;;;;;;;;;;14.60;99.90;;;;;;5010208;28;20358;-75
2021/10/27 02:27:40;;;;;;;;;;;14.60;99.90;;;;;;5013069;28;19917;-75
2021/10/27 02:30:05;;;;;;;;;;;14.60;99.90;;;;;;5013128;28;19917;-75
2021/10/27 02:32:31;;;;;;;;;;;14.60;99.90;;;;;;4995162;28;19965;-75
2021/10/27 02:34:57;;;;;;;;;;;14.60;99.90;;;;;;4994968;28;19936;-75
2021/10/27 02:37:22;;;;;;;;;;;14.60;99.90;;;;;;4995739;28;20012;-75
2021/10/27 02:39:48;;;;;;;;;;;14.70;99.90;;;;;;4995004;28;20326;-74
2021/10/27 02:42:13;;;;;;;;;;;14.60;99.90;;;;;;5012741;28;19917;-75
2021/10/27 02:44:39;;;;;;;;;;;14.60;99.90;;;;;;5012954;28;19960;-75
2021/10/27 02:47:04;;;;;;;;;;;14.70;99.90;;;;;;4995199;28;19914;-74
2021/10/27 02:49:30;;;;;;;;;;;14.70;99.90;;;;;;4995181;28;20409;-76
2021/10/27 02:51:55;;;;;;;;;;;14.70;99.90;;;;;;4994865;28;20289;-74
2021/10/27 02:54:21;;;;;;;;;;;14.70;99.90;;;;;;5012972;28;19922;-75
2021/10/27 02:56:47;;;;;;;;;;;14.70;99.90;;;;;;5012831;28;19909;-75
2021/10/27 02:59:12;;;;;;;;;;;14.70;99.90;;;;;;4995065;28;20366;-74
2021/10/27 03:01:38;;;;;;;;;;;14.70;99.90;;;;;;4995209;28;19910;-74
2021/10/27 03:04:03;;;;;;;;;;;14.70;99.90;;;;;;5012642;28;19917;-75
2021/10/27 03:06:29;;;;;;;;;;;14.70;99.90;;;;;;4994316;28;20294;-76
2021/10/27 03:08:54;;;;;;;;;;;14.70;99.90;;;;;;5012668;28;19920;-75
2021/10/27 03:11:20;;;;;;;;;;;14.80;99.90;;;;;;4994773;28;19910;-75
2021/10/27 03:13:46;;;;;;;;;;;14.80;99.90;;;;;;4995798;28;19914;-76
2021/10/27 03:16:11;;;;;;;;;;;14.80;99.90;;;;;;4998964;28;19917;-75
2021/10/27 03:18:37;;;;;;;;;;;14.80;99.90;;;;;;5016458;28;19964;-75
2021/10/27 03:21:02;;;;;;;;;;;14.80;99.90;;;;;;4999015;28;19988;-75
2021/10/27 03:23:28;;;;;;;;;;;14.80;99.90;;;;;;5016149;28;19913;-75
2021/10/27 03:25:53;;;;;;;;;;;14.80;99.90;;;;;;5016353;28;19921;-76
2021/10/27 03:28:19;;;;;;;;;;;14.80;99.90;;;;;;4998690;28;19913;-75
2021/10/27 03:30:44;;;;;;;;;;;14.90;99.90;;;;;;5016846;28;19922;-75
2021/10/27 03:33:10;;;;;;;;;;;14.80;99.90;;;;;;5016403;28;19913;-75
2021/10/27 03:35:35;;;;;;;;;;;14.90;99.90;;;;;;5016106;28;19913;-76
2021/10/27 03:38:01;;;;;;;;;;;14.80;99.90;;;;;;4998363;28;20258;-75
2021/10/27 03:40:26;;;;;;;;;;;14.80;99.90;;;;;;4998107;28;19917;-75
2021/10/27 03:42:52;;;;;;;;;;;14.80;99.90;;;;;;4986536;28;20337;-75
2021/10/27 03:45:17;;;;;;;;;;;14.80;99.90;;;;;;5016221;28;19909;-74
2021/10/27 03:47:43;;;;;;;;;;;14.70;99.90;;;;;;5015672;28;19917;-75
2021/10/27 03:50:13;;;;;;;;;;;14.70;99.90;;;;;;4998003;28;19921;-75
2021/10/27 03:52:39;;;;;;;;;;;14.70;99.90;;;;;;5015397;28;19920;-75
2021/10/27 03:55:04;;;;;;;;;;;14.70;99.90;;;;;;4998328;28;20012;-77
2021/10/27 03:57:30;;;;;;;;;;;14.70;99.90;;;;;;5015517;28;20370;-77
2021/10/27 03:59:55;;;;;;;;;;;14.70;99.90;;;;;;5015716;28;19913;-76
2021/10/27 04:02:21;;;;;;;;;;;14.60;99.90;;;;;;4997632;28;19968;-75
2021/10/27 04:04:46;;;;;;;;;;;14.60;99.90;;;;;;5012645;28;19921;-75
2021/10/27 04:07:12;;;;;;;;;;;14.60;99.90;;;;;;5015342;28;19918;-76
2021/10/27 04:09:37;;;;;;;;;;;14.60;99.90;;;;;;4997461;28;19963;-75
2021/10/27 04:12:03;;;;;;;;;;;14.50;99.90;;;;;;4998132;28;20321;-74
2021/10/27 04:14:28;;;;;;;;;;;14.60;99.90;;;;;;4997684;28;19914;-76
2021/10/27 04:16:54;;;;;;;;;;;14.60;99.90;;;;;;4997462;28;19921;-75
2021/10/27 04:19:19;;;;;;;;;;;14.60;99.90;;;;;;5015126;28;19913;-75
2021/10/27 04:21:45;;;;;;;;;;;14.60;99.90;;;;;;5015123;28;19926;-75
2021/10/27 04:24:10;;;;;;;;;;;14.60;99.90;;;;;;5014924;28;19914;-77
2021/10/27 04:26:36;;;;;;;;;;;14.70;99.90;;;;;;4996706;28;19936;-76
2021/10/27 04:29:01;;;;;;;;;;;14.70;99.90;;;;;;5015140;28;19968;-75
2021/10/27 04:31:27;;;;;;;;;;;14.60;99.90;;;;;;5015276;28;19920;-76
2021/10/27 04:33:52;;;;;;;;;;;14.70;99.90;;;;;;4997290;28;19947;-76
2021/10/27 04:36:19;;;;;;;;;;;14.60;99.90;;;;;;5015139;28;19996;-77
2021/10/27 04:38:45;;;;;;;;;;;14.70;99.90;;;;;;4997122;28;19947;-76
2021/10/27 04:41:10;;;;;;;;;;;14.70;99.90;;;;;;5015068;28;20330;-76
2021/10/27 04:43:36;;;;;;;;;;;14.70;99.90;;;;;;5014757;28;19913;-74
2021/10/27 04:46:02;;;;;;;;;;;14.70;99.90;;;;;;5014817;28;19913;-75
2021/10/27 04:48:27;;;;;;;;;;;14.70;99.90;;;;;;4996885;28;19956;-74
2021/10/27 04:50:52;;;;;;;;;;;14.70;99.90;;;;;;5014882;28;19917;-77
2021/10/27 04:53:19;;;;;;;;;;;14.70;99.90;;;;;;4996742;28;19960;-75
2021/10/27 04:55:45;;;;;;;;;;;14.70;99.90;;;;;;5015001;28;19914;-75
2021/10/27 04:58:11;;;;;;;;;;;14.70;99.90;;;;;;5014506;28;19914;-76
2021/10/27 05:00:36;;;;;;;;;;;14.70;99.90;;;;;;4997618;28;19916;-75
2021/10/27 05:03:02;;;;;;;;;;;14.70;99.90;;;;;;4996179;28;19913;-77
2021/10/27 05:05:29;;;;;;;;;;;14.70;99.90;;;;;;4996446;28;19919;-77
2021/10/27 05:07:56;;;;;;;;;;;14.70;99.90;;;;;;5014409;28;19944;-75
2021/10/27 05:10:22;;;;;;;;;;;14.70;99.90;;;;;;5014233;28;20013;-75
2021/10/27 05:12:48;;;;;;;;;;;14.70;99.90;;;;;;5013906;28;19960;-77
2021/10/27 05:15:13;;;;;;;;;;;14.80;99.90;;;;;;4995872;28;19914;-76
2021/10/27 05:17:39;;;;;;;;;;;14.70;99.90;;;;;;4996659;28;19921;-75
2021/10/27 05:20:04;;;;;;;;;;;14.70;99.90;;;;;;4996030;28;19914;-74
2021/10/27 05:22:30;;;;;;;;;;;14.70;99.90;;;;;;5013813;28;19945;-76
2021/10/27 05:24:55;;;;;;;;;;;14.70;99.90;;;;;;5014165;28;19909;-75
2021/10/27 05:27:21;;;;;;;;;;;14.70;99.90;;;;;;4995441;28;19995;-76
2021/10/27 05:29:46;;;;;;;;;;;14.70;99.90;;;;;;5014146;28;20289;-74
2021/10/27 05:32:12;;;;;;;;;;;14.70;99.90;;;;;;5013616;28;19913;-74
2021/10/27 05:34:38;;;;;;;;;;;14.70;99.90;;;;;;5013856;28;19968;-75
2021/10/27 05:37:04;;;;;;;;;;;14.60;99.90;;;;;;4996204;28;19913;-76
2021/10/27 05:39:30;;;;;;;;;;;14.60;99.90;;;;;;4996455;28;19909;-76
2021/10/27 05:41:56;;;;;;;;;;;14.70;99.90;;;;;;5013420;28;19914;-76
2021/10/27 05:44:22;;;;;;;;;;;14.70;99.90;;;;;;5013673;28;19914;-77
2021/10/27 05:46:50;;;;;;;;;;;14.70;99.90;;;;;;4996239;28;20433;-74
2021/10/27 05:51:50;;;;;;;;;;;14.70;99.90;;;;;;5012497;28;19920;-76
2021/10/27 05:57:00;;;;;;;;;;;14.70;99.90;;;;;;5013950;28;19944;-76
2021/10/27 05:59:27;;;;;;;;;;;14.70;99.90;;;;;;4995972;28;19913;-76
2021/10/27 06:01:53;;;;;;;;;;;14.70;99.90;;;;;;5013370;28;20458;-76
2021/10/27 06:04:18;;;;;;;;;;;14.70;99.90;;;;;;4995723;28;19968;-77
2021/10/27 06:06:44;;;;;;;;;;;14.70;99.90;;;;;;5013776;28;19945;-75
2021/10/27 06:09:09;;;;;;;;;;;14.80;99.90;;;;;;4995890;28;19955;-75
2021/10/27 06:11:36;;;;;;;;;;;14.80;99.90;;;;;;4995740;28;20278;-76
2021/10/27 06:14:02;;;;;;;;;;;14.80;99.90;;;;;;5013364;28;20328;-76
2021/10/27 06:16:28;;;;;;;;;;;14.80;99.90;;;;;;5013170;28;19909;-76
2021/10/27 06:18:53;;;;;;;;;;;14.80;99.90;;;;;;4995323;28;19929;-76
2021/10/27 06:21:19;;;;;;;;;;;14.90;99.90;;;;;;4995489;28;19910;-76
2021/10/27 06:23:45;;;;;;;;;;;14.80;99.90;;;;;;4996148;28;20019;-76
2021/10/27 06:26:10;;;;;;;;;;;14.90;99.90;;;;;;4995430;28;19948;-76
2021/10/27 06:29:13;;;;;;;;;;;14.80;99.90;;;;;;4995922;28;19914;-75
2021/10/27 06:31:41;;;;;;;;;;;14.80;99.90;;;;;;5010291;28;19921;-76
2021/10/27 06:36:59;;;;;;;;;;;14.90;99.90;;;;;;5013995;28;19913;-75
2021/10/27 06:45:54;;;;;;;;;;;14.90;99.90;;;;;;4994260;28;19914;-75
2021/10/27 06:47:41;;;;;;;;;;;14.80;99.90;;;;;;5013441;28;19940;-75
2021/10/27 06:50:07;;;;;;;;;;;14.80;99.90;;;;;;4998389;28;19913;-75
2021/10/27 06:52:32;;;;;;;;;;;14.70;99.90;;;;;;4999300;28;19914;-74
2021/10/27 06:54:58;;;;;;;;;;;14.80;99.90;;;;;;4999011;28;19914;-75
2021/10/27 06:57:25;;;;;;;;;;;14.70;99.90;;;;;;5017173;28;19939;-75
2021/10/27 06:59:55;;;;;;;;;;;14.80;99.90;;;;;;5016648;28;19914;-76
2021/10/27 07:02:34;;;;;;;;;;;14.70;99.90;;;;;;5017245;28;20324;-75
2021/10/27 07:05:12;;;;;;;;;;;14.70;99.90;;;;;;5016822;28;20378;-76
2021/10/27 07:15:58;;;;;;;;;;;14.80;99.90;;;;;;5017117;28;20396;-76
2021/10/27 07:18:25;;;;;;;;;;;14.80;99.90;;;;;;5014796;28;19932;-75
2021/10/27 07:20:52;;;;;;;;;;;14.80;99.90;;;;;;4997126;28;19937;-77
2021/10/27 07:23:17;;;;;;;;;;;14.80;99.90;;;;;;4999592;28;20385;-76
2021/10/27 07:25:44;;;;;;;;;;;14.80;99.90;;;;;;5016801;28;20182;-77
2021/10/27 07:28:10;;;;;;;;;;;14.80;99.90;;;;;;5016790;28;19914;-77
2021/10/27 07:30:37;;;;;;;;;;;14.80;99.90;;;;;;5016306;28;20398;-75
2021/10/27 07:33:02;;;;;;;;;;;14.80;99.90;;;;;;5016086;28;19913;-74
2021/10/27 07:35:45;;;;;;;;;;;14.80;99.90;;;;;;5016546;28;19913;-76
2021/10/27 07:40:55;;;;;;;;;;;14.80;99.90;;;;;;5015199;28;19975;-75
2021/10/27 07:43:23;;;;;;;;;;;14.80;99.90;;;;;;5005321;28;19953;-75
2021/10/27 07:45:49;;;;;;;;;;;14.80;99.90;;;;;;5015658;28;20362;-75
2021/10/27 07:48:15;;;;;;;;;;;14.80;99.90;;;;;;5015586;28;19918;-75
2021/10/27 07:50:41;;;;;;;;;;;14.90;99.90;;;;;;4997485;28;19910;-76
2021/10/27 07:53:08;;;;;;;;;;;14.90;99.90;;;;;;4998338;28;19909;-76
2021/10/27 07:55:34;;;;;;;;;;;14.90;99.90;;;;;;5015295;28;19913;-75
2021/10/27 07:58:01;;;;;;;;;;;14.90;99.90;;;;;;4997757;28;19913;-74
2021/10/27 08:00:29;;;;;;;;;;;14.90;99.90;;;;;;4997513;28;20271;-76
2021/10/27 08:03:00;;;;;;;;;;;14.90;99.90;;;;;;4997757;28;19914;-75
2021/10/27 08:05:26;;;;;;;;;;;15.00;99.90;;;;;;4997609;28;19929;-75
2021/10/27 08:07:52;;;;;;;;;;;15.00;99.90;;;;;;5015662;28;20359;-76
2021/10/27 08:10:18;;;;;;;;;;;15.00;99.90;;;;;;5015292;28;19914;-76
2021/10/27 08:12:45;;;;;;;;;;;15.10;99.90;;;;;;4996536;28;19917;-75
2021/10/27 08:15:12;;;;;;;;;;;15.10;99.90;;;;;;5015419;28;20358;-76
2021/10/27 08:17:38;;;;;;;;;;;15.20;99.90;;;;;;4996161;28;19925;-76
2021/10/27 08:20:07;;;;;;;;;;;15.20;99.90;;;;;;5000727;28;19940;-75
2021/10/27 08:22:33;;;;;;;;;;;15.30;99.90;;;;;;4997409;28;19996;-75
2021/10/27 08:25:03;;;;;;;;;;;15.40;99.90;;;;;;5015089;28;19922;-76
2021/10/27 08:27:32;;;;;;;;;;;15.60;99.90;;;;;;4993495;28;20386;-76
2021/10/27 08:30:03;;;;;;;;;;;15.70;99.90;;;;;;5014294;28;20428;-75
2021/10/27 08:34:54;;;;;;;;;;;15.90;99.90;;;;;;5013794;28;19987;-75
2021/10/27 08:37:20;;;;;;;;;;;15.90;99.90;;;;;;4996060;28;19913;-74
2021/10/27 08:39:45;;;;;;;;;;;16.00;99.90;;;;;;4994082;28;20004;-76
2021/10/27 08:42:14;;;;;;;;;;;16.10;99.90;;;;;;5008208;28;19975;-75
2021/10/27 08:44:41;;;;;;;;;;;16.20;99.90;;;;;;5014039;28;19910;-77
2021/10/27 08:47:07;;;;;;;;;;;16.20;99.90;;;;;;5014666;28;20378;-77
2021/10/27 08:49:33;;;;;;;;;;;16.20;99.90;;;;;;4997067;28;19940;-77
2021/10/27 08:52:01;;;;;;;;;;;16.30;99.90;;;;;;4997151;28;19951;-80
2021/10/27 08:54:28;;;;;;;;;;;16.30;99.90;;;;;;4998167;28;20332;-79
2021/10/27 08:56:56;;;;;;;;;;;16.40;99.90;;;;;;5013980;28;20028;-79
2021/10/27 09:02:41;;;;;;;;;;;16.50;99.90;;;;;;4935383;29;19946;-80
2021/10/27 09:16:27;;;;;;;;;;;16.50;99.90;;;;;;5001206;28;20251;-77
2021/10/27 10:05:38;;;;;;;;;;;16.20;99.90;;;;;;5014059;28;19920;-78
2021/10/27 10:08:04;;;;;;;;;;;16.20;99.90;;;;;;4987902;28;19976;-79
2021/10/27 10:10:29;;;;;;;;;;;16.20;99.90;;;;;;5011827;28;19913;-78
2021/10/27 10:12:55;;;;;;;;;;;16.20;99.90;;;;;;4992897;28;19920;-78
2021/10/27 10:15:28;;;;;;;;;;;16.20;99.90;;;;;;4996886;28;19914;-76
2021/10/27 10:17:54;;;;;;;;;;;16.30;99.90;;;;;;4996933;28;19933;-77
2021/10/27 10:20:21;;;;;;;;;;;16.30;99.90;;;;;;5014223;28;19913;-78
2021/10/27 10:22:46;;;;;;;;;;;16.30;99.90;;;;;;4996457;28;19913;-79
2021/10/27 10:25:15;;;;;;;;;;;16.40;99.90;;;;;;5015936;28;20271;-79
2021/10/27 10:27:57;;;;;;;;;;;16.40;99.90;;;;;;4998285;28;19917;-79
2021/10/27 10:30:37;;;;;;;;;;;16.50;99.90;;;;;;4983558;28;19944;-79
2021/10/27 10:33:09;;;;;;;;;;;16.50;99.90;;;;;;4991426;28;20131;-79
2021/10/27 10:35:45;;;;;;;;;;;16.50;99.90;;;;;;5014958;28;19928;-79
2021/10/27 10:41:31;;;;;;;;;;;16.60;99.90;;;;;;5017877;28;19914;-80
2021/10/27 10:44:07;;;;;;;;;;;16.60;99.90;;;;;;4998604;28;20012;-79
2021/10/27 11:11:57;;;;;;;;;;;16.70;99.90;;;;;;5011985;28;19920;-78
2021/10/27 11:40:07;;;;;;;;;;;16.50;99.90;;;;;;5016911;28;19914;-78
2021/10/27 11:42:56;;;;;;;;;;;16.60;99.90;;;;;;4998628;28;19914;-78
2021/10/27 11:45:36;;;;;;;;;;;16.50;99.90;;;;;;4998232;28;20298;-77
2021/10/27 11:48:30;;;;;;;;;;;16.50;99.90;;;;;;5000784;28;19918;-78
2021/10/27 11:50:49;;;;;;;;;;;16.50;99.90;;;;;;5001212;28;19914;-76
2021/10/27 11:53:19;;;;;;;;;;;16.50;99.90;;;;;;4998160;28;19993;-77
2021/10/27 11:55:44;;;;;;;;;;;16.50;99.90;;;;;;5015359;28;20367;-77
2021/10/27 11:58:10;;;;;;;;;;;16.50;99.90;;;;;;5030792;28;19924;-77
2021/10/27 12:00:38;;;;;;;;;;;16.60;99.90;;;;;;5003558;28;19913;-78
2021/10/27 12:03:10;;;;;;;;;;;16.60;99.90;;;;;;5001383;28;19917;-78
2021/10/27 12:13:42;;;;;;;;;;;16.80;99.90;;;;;;5015962;28;19913;-80
2021/10/27 12:19:04;;;;;;;;;;;17.20;99.90;;;;;;4963469;28;19929;-77
2021/10/27 12:21:29;;;;;;;;;;;17.30;99.90;;;;;;4974080;28;19921;-78
2021/10/27 12:23:55;;;;;;;;;;;17.30;99.90;;;;;;4973021;28;19914;-78
2021/10/27 12:26:24;;;;;;;;;;;17.30;99.90;;;;;;4975615;28;19914;-81
2021/10/27 12:29:08;;;;;;;;;;;17.30;99.90;;;;;;4975302;28;19914;-80
2021/10/27 12:31:33;;;;;;;;;;;17.20;99.90;;;;;;4974636;28;19957;-80
2021/10/27 12:33:59;;;;;;;;;;;17.30;99.90;;;;;;4975066;28;19925;-78
2021/10/27 12:36:29;;;;;;;;;;;17.10;99.90;;;;;;4974920;28;19922;-78
2021/10/27 12:39:05;;;;;;;;;;;17.00;99.90;;;;;;4973927;28;19920;-78
2021/10/27 12:41:30;;;;;;;;;;;17.20;99.90;;;;;;4971892;28;19914;-81
2021/10/27 12:43:56;;;;;;;;;;;17.30;99.90;;;;;;4974059;28;19929;-79
2021/10/27 12:46:21;;;;;;;;;;;17.30;99.90;;;;;;4974268;28;19914;-79
2021/10/27 12:48:47;;;;;;;;;;;17.50;99.90;;;;;;4973191;28;19914;-79
2021/10/27 12:51:15;;;;;;;;;;;17.60;99.90;;;;;;4972011;28;20334;-78
2021/10/27 12:53:43;;;;;;;;;;;17.40;99.90;;;;;;4969266;28;19914;-79
2021/10/27 12:56:10;;;;;;;;;;;17.20;99.90;;;;;;4970372;28;19952;-79
2021/10/27 12:58:49;;;;;;;;;;;17.10;99.90;;;;;;4973826;28;19964;-79
2021/10/27 13:01:24;;;;;;;;;;;17.10;99.90;;;;;;4969247;28;19914;-79
2021/10/27 13:12:02;;;;;;;;;;;17.10;99.90;;;;;;4974280;28;19921;-80
2021/10/27 13:30:34;;;;;;;;;;;17.20;99.90;;;;;;5001156;28;19920;-79
2021/10/27 13:33:03;;;;;;;;;;;17.20;99.90;;;;;;4996579;28;20434;-78
2021/10/27 13:35:28;;;;;;;;;;;17.10;99.90;;;;;;5012948;28;20457;-77
2021/10/27 13:37:54;;;;;;;;;;;17.10;99.90;;;;;;4996030;28;19996;-78
2021/10/27 13:40:20;;;;;;;;;;;17.10;99.90;;;;;;4991651;28;19921;-78
2021/10/27 13:43:00;;;;;;;;;;;17.00;99.90;;;;;;5009564;28;19917;-78
2021/10/27 13:45:36;;;;;;;;;;;17.10;99.90;;;;;;4995631;28;19920;-78
2021/10/27 14:06:51;;;;;;;;;;;17.20;99.90;;;;;;5011039;28;19924;-79
2021/10/27 14:09:33;;;;;;;;;;;17.30;99.90;;;;;;4994601;28;19917;-79
2021/10/27 14:12:15;;;;;;;;;;;17.30;99.90;;;;;;4987676;28;19992;-79
2021/10/27 14:39:28;;;;;;;;;;;16.90;99.90;;;;;;5010213;28;19968;-79
2021/10/27 15:20:27;;;;;;;;;;;15.70;99.90;;;;;;5014026;28;19967;-79
2021/10/27 15:28:13;;;;;;;;;;;15.60;99.90;;;;;;5013067;28;20024;-79
2021/10/27 15:36:15;;;;;;;;;;;15.50;99.90;;;;;;5015175;28;19960;-78
2021/10/27 15:52:12;;;;;;;;;;;15.50;99.90;;;;;;5015674;28;20278;-78
2021/10/27 15:54:56;;;;;;;;;;;15.40;99.90;;;;;;5013485;28;19928;-80
2021/10/27 15:57:22;;;;;;;;;;;15.30;99.90;;;;;;4998390;28;19913;-78
2021/10/27 15:59:50;;;;;;;;;;;15.30;99.90;;;;;;5017768;28;19960;-79
2021/10/27 16:02:15;;;;;;;;;;;15.20;99.90;;;;;;4997447;28;19917;-79
2021/10/27 16:04:41;;;;;;;;;;;15.10;99.90;;;;;;5016389;28;19913;-79
2021/10/27 16:07:07;;;;;;;;;;;15.10;99.90;;;;;;5015923;28;20374;-78
2021/10/27 16:09:40;;;;;;;;;;;15.00;99.90;;;;;;5014931;28;19921;-80
2021/10/27 16:12:06;;;;;;;;;;;15.00;99.90;;;;;;5004510;28;19940;-80
2021/10/27 16:14:32;;;;;;;;;;;14.90;99.90;;;;;;5014975;28;19913;-79
2021/10/27 16:16:57;;;;;;;;;;;14.80;99.90;;;;;;5012133;28;20004;-79
2021/10/27 16:19:36;;;;;;;;;;;14.80;99.90;;;;;;5014541;28;19999;-79
2021/10/27 16:22:02;;;;;;;;;;;14.80;99.90;;;;;;5015147;28;19914;-79
2021/10/27 16:24:28;;;;;;;;;;;14.70;99.90;;;;;;5001886;28;19913;-78
2021/10/27 16:26:54;;;;;;;;;;;14.60;99.90;;;;;;4997040;28;19925;-78
2021/10/27 16:29:20;;;;;;;;;;;14.50;99.90;;;;;;5014574;28;19945;-78
2021/10/27 16:31:46;;;;;;;;;;;14.50;99.90;;;;;;5014342;28;19956;-79
2021/10/27 16:34:13;;;;;;;;;;;14.40;99.90;;;;;;4994305;28;20416;-79
2021/10/27 16:36:39;;;;;;;;;;;14.40;99.90;;;;;;4995584;28;19920;-80
2021/10/27 16:39:05;;;;;;;;;;;14.30;99.90;;;;;;4994406;28;19913;-79
2021/10/27 16:41:31;;;;;;;;;;;14.30;99.90;;;;;;5016561;28;19924;-79
2021/10/27 16:43:57;;;;;;;;;;;14.30;99.90;;;;;;4996605;28;20368;-79
2021/10/27 16:46:25;;;;;;;;;;;14.20;99.90;;;;;;5013341;28;19949;-79
2021/10/27 16:48:51;;;;;;;;;;;14.20;99.90;;;;;;4997238;28;19914;-79
2021/10/27 16:51:17;;;;;;;;;;;14.20;99.90;;;;;;5014942;28;19967;-78
2021/10/27 16:53:42;;;;;;;;;;;14.20;99.90;;;;;;5013249;28;19913;-78
2021/10/27 16:56:08;;;;;;;;;;;14.10;99.90;;;;;;5012481;28;19913;-79
2021/10/27 16:58:34;;;;;;;;;;;14.10;99.90;;;;;;4997456;28;19920;-81
2021/10/27 17:01:00;;;;;;;;;;;14.10;99.90;;;;;;5016263;28;19917;-78
2021/10/27 17:03:25;;;;;;;;;;;14.00;99.90;;;;;;5015177;28;19914;-77
2021/10/27 17:05:51;;;;;;;;;;;14.00;99.90;;;;;;4987503;28;19921;-78
2021/10/27 17:08:17;;;;;;;;;;;13.90;99.90;;;;;;5013419;28;19925;-79
2021/10/27 17:10:49;;;;;;;;;;;13.90;99.90;;;;;;4996516;28;19920;-78
2021/10/27 17:13:15;;;;;;;;;;;13.80;99.90;;;;;;4997632;28;20362;-79
2021/10/27 17:15:41;;;;;;;;;;;13.80;99.90;;;;;;4996489;28;20390;-78
2021/10/27 17:18:07;;;;;;;;;;;13.80;99.90;;;;;;4996861;28;19922;-79
2021/10/27 17:20:36;;;;;;;;;;;13.70;99.90;;;;;;4996979;28;20282;-78
2021/10/27 17:23:01;;;;;;;;;;;13.80;99.90;;;;;;4997039;28;19914;-78
2021/10/27 17:25:28;;;;;;;;;;;13.70;99.90;;;;;;4997127;28;19914;-79
2021/10/27 17:27:54;;;;;;;;;;;13.60;99.90;;;;;;4996976;28;20008;-79
2021/10/27 17:30:20;;;;;;;;;;;13.60;99.90;;;;;;4995648;28;19921;-79
2021/10/27 17:32:46;;;;;;;;;;;13.60;99.90;;;;;;4994809;28;20278;-80
2021/10/27 17:35:13;;;;;;;;;;;13.60;99.90;;;;;;5013508;28;19913;-80
2021/10/27 17:37:39;;;;;;;;;;;13.60;99.90;;;;;;5014421;28;20416;-79
2021/10/27 17:40:12;;;;;;;;;;;13.50;99.90;;;;;;4995486;28;19913;-79
2021/10/27 17:42:42;;;;;;;;;;;13.50;99.90;;;;;;5014070;28;19960;-81
2021/10/27 17:45:07;;;;;;;;;;;13.40;99.90;;;;;;4987641;28;19921;-78
2021/10/27 17:47:40;;;;;;;;;;;13.50;99.90;;;;;;4989666;28;20326;-77
2021/10/27 17:50:18;;;;;;;;;;;13.50;99.90;;;;;;4993777;28;19917;-78
2021/10/27 17:58:28;;;;;;;;;;;13.40;99.90;;;;;;5008553;28;19925;-77
2021/10/27 18:00:48;;;;;;;;;;;13.40;99.90;;;;;;5010043;28;19917;-77
2021/10/27 18:03:14;;;;;;;;;;;13.40;99.90;;;;;;4991305;28;19918;-80
2021/10/27 18:05:39;;;;;;;;;;;13.30;99.90;;;;;;4995798;28;19914;-79
2021/10/27 18:08:09;;;;;;;;;;;13.30;99.90;;;;;;4994705;28;19917;-78
2021/10/27 18:10:34;;;;;;;;;;;13.30;99.90;;;;;;5012554;28;20373;-79
2021/10/27 18:13:01;;;;;;;;;;;13.30;99.90;;;;;;5012816;28;19913;-79
2021/10/27 18:15:34;;;;;;;;;;;13.30;99.90;;;;;;5010787;28;19921;-79
2021/10/27 18:17:59;;;;;;;;;;;13.30;99.90;;;;;;4993533;28;20270;-78
2021/10/27 18:20:28;;;;;;;;;;;13.30;99.90;;;;;;5011284;28;19925;-79
2021/10/27 18:23:12;;;;;;;;;;;13.30;99.90;;;;;;4996455;28;19918;-79
2021/10/27 18:36:17;;;;;;;;;;;13.30;99.90;;;;;;5013521;28;19924;-79
2021/10/27 18:41:25;;;;;;;;;;;13.30;99.90;;;;;;5007149;28;19915;-79
2021/10/27 18:43:50;;;;;;;;;;;13.30;99.90;;;;;;5012889;28;19995;-78
2021/10/27 18:46:16;;;;;;;;;;;13.30;99.90;;;;;;4999079;28;20289;-79
2021/10/27 18:48:44;;;;;;;;;;;13.30;99.90;;;;;;4999320;28;19917;-79
2021/10/27 18:51:15;;;;;;;;;;;13.30;99.90;;;;;;5017041;28;20330;-79
2021/10/27 18:56:18;;;;;;;;;;;13.20;99.90;;;;;;5016986;28;19913;-79
2021/10/27 18:59:07;;;;;;;;;;;13.20;99.90;;;;;;5017009;28;19972;-79
2021/10/27 19:12:11;;;;;;;;;;;13.20;99.90;;;;;;5016232;28;19991;-77
2021/10/27 19:15:01;;;;;;;;;;;13.10;99.90;;;;;;4997711;28;19917;-79
2021/10/27 19:17:27;;;;;;;;;;;13.10;99.90;;;;;;5016605;28;19968;-78
2021/10/27 19:19:53;;;;;;;;;;;13.10;99.90;;;;;;4998374;28;19914;-79
2021/10/27 19:22:19;;;;;;;;;;;13.20;99.90;;;;;;4991851;28;19920;-79
2021/10/27 19:24:54;;;;;;;;;;;13.20;99.90;;;;;;5015159;28;19917;-80
2021/10/27 19:27:47;;;;;;;;;;;13.10;99.90;;;;;;4979720;28;19918;-78
2021/10/27 20:08:13;;;;;;;;;;;12.90;99.90;;;;;;5015264;28;19928;-79
2021/10/27 20:13:48;;;;;;;;;;;12.80;99.90;;;;;;5015039;28;19913;-77
2021/10/27 20:19:05;;;;;;;;;;;12.80;99.90;;;;;;5012330;28;20013;-77